sensor_id;sensor_type;location;lat;lon;timestamp;P1;durP1;ratioP1;P2;durP2;ratioP2
37677;SDS011;23517;50.390;8.616;2022-09-28T00:01:13;5.95;;;2.95;;
37677;SDS011;23517;50.390;8.616;2022-09-28T00:03:52;4.88;;;2.67;;
37677;SDS011;23517;50.390;8.616;2022-09-28T00:06:25;6.82;;;2.95;;
37677;SDS011;23517;50.390;8.616;2022-09-28T00:08:55;3.60;;;2.55;;
37677;SDS011;23517;50.390;8.616;2022-09-28T00:11:23;3.50;;;2.72;;
37677;SDS011;23517;50.390;8.616;2022-09-28T00:13:53;5.72;;;2.95;;
37677;SDS011;23517;50.390;8.616;2022-09-28T00:16:26;2.85;;;2.42;;
37677;SDS011;23517;50.390;8.616;2022-09-28T00:18:56;4.47;;;2.50;;
37677;SDS011;23517;50.390;8.616;2022-09-28T00:21:25;4.00;;;2.30;;
37677;SDS011;23517;50.390;8.616;2022-09-28T00:23:56;3.85;;;2.50;;
37677;SDS011;23517;50.390;8.616;2022-09-28T00:26:50;3.38;;;2.13;;
37677;SDS011;23517;50.390;8.616;2022-09-28T00:29:24;3.47;;;2.30;;
37677;SDS011;23517;50.390;8.616;2022-09-28T00:32:03;2.65;;;2.00;;
37677;SDS011;23517;50.390;8.616;2022-09-28T00:34:39;6.07;;;2.40;;
37677;SDS011;23517;50.390;8.616;2022-09-28T00:37:11;3.13;;;1.98;;
37677;SDS011;23517;50.390;8.616;2022-09-28T00:39:39;5.95;;;2.08;;
37677;SDS011;23517;50.390;8.616;2022-09-28T00:42:14;2.28;;;2.08;;
37677;SDS011;23517;50.390;8.616;2022-09-28T00:44:48;2.97;;;2.30;;
37677;SDS011;23517;50.390;8.616;2022-09-28T00:47:31;2.80;;;2.13;;
37677;SDS011;23517;50.390;8.616;2022-09-28T00:50:10;4.78;;;2.50;;
37677;SDS011;23517;50.390;8.616;2022-09-28T00:53:00;4.97;;;2.42;;
37677;SDS011;23517;50.390;8.616;2022-09-28T00:58:07;4.03;;;2.22;;
37677;SDS011;23517;50.390;8.616;2022-09-28T01:00:40;4.55;;;2.90;;
37677;SDS011;23517;50.390;8.616;2022-09-28T01:03:07;3.60;;;2.70;;
37677;SDS011;23517;50.390;8.616;2022-09-28T01:05:34;2.50;;;2.10;;
37677;SDS011;23517;50.390;8.616;2022-09-28T01:08:02;3.47;;;2.45;;
37677;SDS011;23517;50.390;8.616;2022-09-28T01:10:30;4.45;;;2.13;;
37677;SDS011;23517;50.390;8.616;2022-09-28T01:12:57;1.83;;;1.70;;
37677;SDS011;23517;50.390;8.616;2022-09-28T01:15:25;1.67;;;1.58;;
37677;SDS011;23517;50.390;8.616;2022-09-28T01:17:56;1.40;;;1.30;;
37677;SDS011;23517;50.390;8.616;2022-09-28T01:20:53;2.22;;;1.50;;
37677;SDS011;23517;50.390;8.616;2022-09-28T01:23:36;1.88;;;1.52;;
37677;SDS011;23517;50.390;8.616;2022-09-28T01:32:00;2.17;;;1.42;;
37677;SDS011;23517;50.390;8.616;2022-09-28T01:34:50;2.95;;;1.33;;
37677;SDS011;23517;50.390;8.616;2022-09-28T01:37:22;1.23;;;1.10;;
37677;SDS011;23517;50.390;8.616;2022-09-28T01:39:57;2.15;;;1.40;;
37677;SDS011;23517;50.390;8.616;2022-09-28T01:42:28;1.55;;;1.10;;
37677;SDS011;23517;50.390;8.616;2022-09-28T01:45:00;3.75;;;1.20;;
37677;SDS011;23517;50.390;8.616;2022-09-28T01:47:37;2.58;;;1.00;;
37677;SDS011;23517;50.390;8.616;2022-09-28T01:50:08;1.40;;;1.20;;
37677;SDS011;23517;50.390;8.616;2022-09-28T01:52:44;1.00;;;1.00;;
37677;SDS011;23517;50.390;8.616;2022-09-28T01:55:37;1.55;;;1.13;;
37677;SDS011;23517;50.390;8.616;2022-09-28T02:00:41;3.80;;;1.23;;
37677;SDS011;23517;50.390;8.616;2022-09-28T02:03:30;1.23;;;0.88;;
37677;SDS011;23517;50.390;8.616;2022-09-28T02:06:35;1.25;;;1.00;;
37677;SDS011;23517;50.390;8.616;2022-09-28T02:09:12;1.85;;;1.33;;
37677;SDS011;23517;50.390;8.616;2022-09-28T02:11:58;1.10;;;1.00;;
37677;SDS011;23517;50.390;8.616;2022-09-28T02:14:30;1.50;;;0.93;;
37677;SDS011;23517;50.390;8.616;2022-09-28T02:16:59;2.80;;;1.00;;
37677;SDS011;23517;50.390;8.616;2022-09-28T02:19:27;1.02;;;1.00;;
37677;SDS011;23517;50.390;8.616;2022-09-28T02:27:51;4.38;;;1.08;;
37677;SDS011;23517;50.390;8.616;2022-09-28T02:30:24;0.70;;;0.70;;
37677;SDS011;23517;50.390;8.616;2022-09-28T02:32:53;0.77;;;0.77;;
37677;SDS011;23517;50.390;8.616;2022-09-28T02:35:26;0.98;;;0.80;;
37677;SDS011;23517;50.390;8.616;2022-09-28T02:37:53;0.95;;;0.95;;
37677;SDS011;23517;50.390;8.616;2022-09-28T02:40:22;0.70;;;0.70;;
37677;SDS011;23517;50.390;8.616;2022-09-28T02:42:58;1.40;;;0.77;;
37677;SDS011;23517;50.390;8.616;2022-09-28T02:49:03;0.95;;;0.88;;
37677;SDS011;23517;50.390;8.616;2022-09-28T03:00:36;2.53;;;0.90;;
37677;SDS011;23517;50.390;8.616;2022-09-28T03:05:56;0.90;;;0.80;;
37677;SDS011;23517;50.390;8.616;2022-09-28T03:08:34;0.60;;;0.60;;
37677;SDS011;23517;50.390;8.616;2022-09-28T03:11:08;3.42;;;0.98;;
37677;SDS011;23517;50.390;8.616;2022-09-28T03:13:43;4.72;;;0.90;;
37677;SDS011;23517;50.390;8.616;2022-09-28T03:18:40;0.90;;;0.90;;
37677;SDS011;23517;50.390;8.616;2022-09-28T03:21:08;1.58;;;0.75;;
37677;SDS011;23517;50.390;8.616;2022-09-28T03:23:37;0.60;;;0.60;;
37677;SDS011;23517;50.390;8.616;2022-09-28T03:26:06;2.40;;;1.00;;
37677;SDS011;23517;50.390;8.616;2022-09-28T03:28:35;2.67;;;0.80;;
37677;SDS011;23517;50.390;8.616;2022-09-28T03:31:02;1.33;;;0.80;;
37677;SDS011;23517;50.390;8.616;2022-09-28T03:33:29;2.47;;;0.90;;
37677;SDS011;23517;50.390;8.616;2022-09-28T03:35:56;3.13;;;1.30;;
37677;SDS011;23517;50.390;8.616;2022-09-28T03:38:22;1.88;;;0.75;;
37677;SDS011;23517;50.390;8.616;2022-09-28T03:40:53;1.25;;;0.70;;
37677;SDS011;23517;50.390;8.616;2022-09-28T03:43:25;5.28;;;0.98;;
37677;SDS011;23517;50.390;8.616;2022-09-28T03:45:53;0.88;;;0.70;;
37677;SDS011;23517;50.390;8.616;2022-09-28T03:48:27;2.70;;;0.80;;
37677;SDS011;23517;50.390;8.616;2022-09-28T03:51:00;1.13;;;0.88;;
37677;SDS011;23517;50.390;8.616;2022-09-28T03:53:31;1.33;;;1.23;;
37677;SDS011;23517;50.390;8.616;2022-09-28T03:56:02;2.30;;;1.05;;
37677;SDS011;23517;50.390;8.616;2022-09-28T03:58:37;1.90;;;0.88;;
37677;SDS011;23517;50.390;8.616;2022-09-28T04:01:05;2.03;;;0.88;;
37677;SDS011;23517;50.390;8.616;2022-09-28T04:03:42;1.45;;;0.98;;
37677;SDS011;23517;50.390;8.616;2022-09-28T04:06:10;1.92;;;1.05;;
37677;SDS011;23517;50.390;8.616;2022-09-28T04:08:37;2.22;;;0.90;;
37677;SDS011;23517;50.390;8.616;2022-09-28T04:11:05;1.58;;;0.80;;
37677;SDS011;23517;50.390;8.616;2022-09-28T04:13:31;3.50;;;0.90;;
37677;SDS011;23517;50.390;8.616;2022-09-28T04:15:59;1.52;;;0.77;;
37677;SDS011;23517;50.390;8.616;2022-09-28T04:18:27;1.17;;;0.80;;
37677;SDS011;23517;50.390;8.616;2022-09-28T04:21:08;1.73;;;0.90;;
37677;SDS011;23517;50.390;8.616;2022-09-28T04:23:38;1.45;;;1.00;;
37677;SDS011;23517;50.390;8.616;2022-09-28T04:26:06;1.63;;;0.90;;
37677;SDS011;23517;50.390;8.616;2022-09-28T04:28:50;2.95;;;0.90;;
37677;SDS011;23517;50.390;8.616;2022-09-28T04:31:36;2.20;;;1.08;;
37677;SDS011;23517;50.390;8.616;2022-09-28T04:34:09;3.13;;;1.00;;
37677;SDS011;23517;50.390;8.616;2022-09-28T04:36:39;2.70;;;1.02;;
37677;SDS011;23517;50.390;8.616;2022-09-28T04:39:06;1.40;;;1.00;;
37677;SDS011;23517;50.390;8.616;2022-09-28T04:41:33;3.53;;;0.98;;
37677;SDS011;23517;50.390;8.616;2022-09-28T04:44:00;2.72;;;1.10;;
37677;SDS011;23517;50.390;8.616;2022-09-28T04:46:28;3.45;;;1.08;;
37677;SDS011;23517;50.390;8.616;2022-09-28T04:48:54;1.67;;;1.30;;
37677;SDS011;23517;50.390;8.616;2022-09-28T04:51:21;1.58;;;1.08;;
37677;SDS011;23517;50.390;8.616;2022-09-28T04:53:48;3.17;;;1.10;;
37677;SDS011;23517;50.390;8.616;2022-09-28T04:56:15;3.05;;;0.93;;
37677;SDS011;23517;50.390;8.616;2022-09-28T04:58:43;2.67;;;1.15;;
37677;SDS011;23517;50.390;8.616;2022-09-28T05:01:17;2.95;;;1.30;;
37677;SDS011;23517;50.390;8.616;2022-09-28T05:03:51;2.25;;;0.95;;
37677;SDS011;23517;50.390;8.616;2022-09-28T05:06:17;1.50;;;1.10;;
37677;SDS011;23517;50.390;8.616;2022-09-28T05:08:44;4.32;;;0.98;;
37677;SDS011;23517;50.390;8.616;2022-09-28T05:11:13;2.05;;;1.63;;
37677;SDS011;23517;50.390;8.616;2022-09-28T05:13:41;3.35;;;1.58;;
37677;SDS011;23517;50.390;8.616;2022-09-28T05:16:14;3.95;;;1.50;;
37677;SDS011;23517;50.390;8.616;2022-09-28T05:18:41;2.65;;;1.20;;
37677;SDS011;23517;50.390;8.616;2022-09-28T05:21:12;2.35;;;1.10;;
37677;SDS011;23517;50.390;8.616;2022-09-28T05:23:44;1.70;;;1.17;;
37677;SDS011;23517;50.390;8.616;2022-09-28T05:26:12;2.53;;;1.40;;
37677;SDS011;23517;50.390;8.616;2022-09-28T05:28:39;1.63;;;1.23;;
37677;SDS011;23517;50.390;8.616;2022-09-28T05:31:06;2.95;;;1.38;;
37677;SDS011;23517;50.390;8.616;2022-09-28T05:33:33;4.43;;;1.25;;
37677;SDS011;23517;50.390;8.616;2022-09-28T05:36:00;2.75;;;1.08;;
37677;SDS011;23517;50.390;8.616;2022-09-28T05:38:27;4.50;;;1.52;;
37677;SDS011;23517;50.390;8.616;2022-09-28T05:40:55;5.97;;;3.13;;
37677;SDS011;23517;50.390;8.616;2022-09-28T05:43:22;3.47;;;1.70;;
37677;SDS011;23517;50.390;8.616;2022-09-28T05:45:49;2.42;;;1.33;;
37677;SDS011;23517;50.390;8.616;2022-09-28T05:48:20;2.10;;;1.23;;
37677;SDS011;23517;50.390;8.616;2022-09-28T05:50:51;4.53;;;1.67;;
37677;SDS011;23517;50.390;8.616;2022-09-28T05:53:17;1.85;;;1.30;;
37677;SDS011;23517;50.390;8.616;2022-09-28T05:55:44;5.43;;;1.40;;
37677;SDS011;23517;50.390;8.616;2022-09-28T05:58:11;4.72;;;1.50;;
37677;SDS011;23517;50.390;8.616;2022-09-28T06:00:38;2.40;;;1.45;;
37677;SDS011;23517;50.390;8.616;2022-09-28T06:03:05;5.95;;;1.60;;
37677;SDS011;23517;50.390;8.616;2022-09-28T06:05:36;3.22;;;1.63;;
37677;SDS011;23517;50.390;8.616;2022-09-28T06:08:04;4.30;;;1.40;;
37677;SDS011;23517;50.390;8.616;2022-09-28T06:10:33;4.43;;;2.28;;
37677;SDS011;23517;50.390;8.616;2022-09-28T06:13:00;5.38;;;3.45;;
37677;SDS011;23517;50.390;8.616;2022-09-28T06:15:27;3.33;;;1.50;;
37677;SDS011;23517;50.390;8.616;2022-09-28T06:17:57;4.07;;;1.65;;
37677;SDS011;23517;50.390;8.616;2022-09-28T06:20:31;4.15;;;1.55;;
37677;SDS011;23517;50.390;8.616;2022-09-28T06:23:01;4.30;;;1.50;;
37677;SDS011;23517;50.390;8.616;2022-09-28T06:25:28;2.40;;;1.33;;
37677;SDS011;23517;50.390;8.616;2022-09-28T06:28:05;1.85;;;1.27;;
37677;SDS011;23517;50.390;8.616;2022-09-28T06:30:35;1.42;;;0.98;;
37677;SDS011;23517;50.390;8.616;2022-09-28T06:33:06;4.13;;;1.55;;
37677;SDS011;23517;50.390;8.616;2022-09-28T06:35:36;3.65;;;1.55;;
37677;SDS011;23517;50.390;8.616;2022-09-28T06:38:04;3.60;;;1.45;;
37677;SDS011;23517;50.390;8.616;2022-09-28T06:40:31;3.70;;;1.63;;
37677;SDS011;23517;50.390;8.616;2022-09-28T06:43:00;2.13;;;1.10;;
37677;SDS011;23517;50.390;8.616;2022-09-28T06:45:35;3.65;;;1.50;;
37677;SDS011;23517;50.390;8.616;2022-09-28T06:48:03;5.60;;;1.40;;
37677;SDS011;23517;50.390;8.616;2022-09-28T06:50:34;4.13;;;1.85;;
37677;SDS011;23517;50.390;8.616;2022-09-28T06:53:05;2.25;;;1.30;;
37677;SDS011;23517;50.390;8.616;2022-09-28T06:55:37;1.83;;;1.30;;
37677;SDS011;23517;50.390;8.616;2022-09-28T06:58:05;4.72;;;1.52;;
37677;SDS011;23517;50.390;8.616;2022-09-28T07:00:35;4.03;;;1.80;;
37677;SDS011;23517;50.390;8.616;2022-09-28T07:03:05;2.85;;;1.35;;
37677;SDS011;23517;50.390;8.616;2022-09-28T07:05:36;4.20;;;1.35;;
37677;SDS011;23517;50.390;8.616;2022-09-28T07:08:09;4.60;;;1.42;;
37677;SDS011;23517;50.390;8.616;2022-09-28T07:10:40;4.05;;;1.60;;
37677;SDS011;23517;50.390;8.616;2022-09-28T07:13:08;1.58;;;1.20;;
37677;SDS011;23517;50.390;8.616;2022-09-28T07:15:56;4.25;;;1.35;;
37677;SDS011;23517;50.390;8.616;2022-09-28T07:18:26;4.07;;;1.40;;
37677;SDS011;23517;50.390;8.616;2022-09-28T07:20:55;2.08;;;1.10;;
37677;SDS011;23517;50.390;8.616;2022-09-28T07:23:25;2.75;;;1.10;;
37677;SDS011;23517;50.390;8.616;2022-09-28T07:25:54;3.22;;;0.90;;
37677;SDS011;23517;50.390;8.616;2022-09-28T07:28:23;2.83;;;1.20;;
37677;SDS011;23517;50.390;8.616;2022-09-28T07:30:50;2.53;;;1.42;;
37677;SDS011;23517;50.390;8.616;2022-09-28T07:33:17;6.47;;;3.42;;
37677;SDS011;23517;50.390;8.616;2022-09-28T07:35:53;3.55;;;2.10;;
37677;SDS011;23517;50.390;8.616;2022-09-28T07:38:20;2.63;;;1.65;;
37677;SDS011;23517;50.390;8.616;2022-09-28T07:40:47;3.80;;;1.40;;
37677;SDS011;23517;50.390;8.616;2022-09-28T07:43:32;5.63;;;0.90;;
37677;SDS011;23517;50.390;8.616;2022-09-28T07:45:59;4.15;;;0.93;;
37677;SDS011;23517;50.390;8.616;2022-09-28T07:48:26;1.48;;;1.08;;
37677;SDS011;23517;50.390;8.616;2022-09-28T07:50:54;5.80;;;2.03;;
37677;SDS011;23517;50.390;8.616;2022-09-28T07:53:23;1.38;;;1.17;;
37677;SDS011;23517;50.390;8.616;2022-09-28T07:58:21;1.17;;;0.85;;
37677;SDS011;23517;50.390;8.616;2022-09-28T08:00:48;5.93;;;1.13;;
37677;SDS011;23517;50.390;8.616;2022-09-28T08:03:16;2.15;;;1.33;;
37677;SDS011;23517;50.390;8.616;2022-09-28T08:05:46;1.90;;;1.10;;
37677;SDS011;23517;50.390;8.616;2022-09-28T08:08:13;2.70;;;1.35;;
37677;SDS011;23517;50.390;8.616;2022-09-28T08:10:41;2.58;;;1.38;;
37677;SDS011;23517;50.390;8.616;2022-09-28T08:13:12;3.13;;;1.25;;
37677;SDS011;23517;50.390;8.616;2022-09-28T08:15:40;2.60;;;1.38;;
37677;SDS011;23517;50.390;8.616;2022-09-28T08:18:07;2.70;;;1.25;;
37677;SDS011;23517;50.390;8.616;2022-09-28T08:20:33;1.42;;;1.33;;
37677;SDS011;23517;50.390;8.616;2022-09-28T08:23:19;2.85;;;1.45;;
37677;SDS011;23517;50.390;8.616;2022-09-28T08:25:46;2.67;;;1.40;;
37677;SDS011;23517;50.390;8.616;2022-09-28T08:28:14;1.92;;;1.00;;
37677;SDS011;23517;50.390;8.616;2022-09-28T08:30:45;2.95;;;1.80;;
37677;SDS011;23517;50.390;8.616;2022-09-28T08:33:12;4.32;;;1.77;;
37677;SDS011;23517;50.390;8.616;2022-09-28T08:35:43;3.47;;;1.42;;
37677;SDS011;23517;50.390;8.616;2022-09-28T08:38:11;3.35;;;0.90;;
37677;SDS011;23517;50.390;8.616;2022-09-28T08:41:00;3.15;;;1.13;;
37677;SDS011;23517;50.390;8.616;2022-09-28T08:46:31;3.03;;;0.90;;
37677;SDS011;23517;50.390;8.616;2022-09-28T08:51:59;3.83;;;0.68;;
37677;SDS011;23517;50.390;8.616;2022-09-28T08:57:31;1.85;;;0.98;;
37677;SDS011;23517;50.390;8.616;2022-09-28T09:00:09;3.35;;;0.90;;
37677;SDS011;23517;50.390;8.616;2022-09-28T09:02:55;2.03;;;0.70;;
37677;SDS011;23517;50.390;8.616;2022-09-28T09:05:31;2.47;;;0.88;;
37677;SDS011;23517;50.390;8.616;2022-09-28T09:08:40;2.50;;;0.63;;
37677;SDS011;23517;50.390;8.616;2022-09-28T09:11:42;4.00;;;1.27;;
37677;SDS011;23517;50.390;8.616;2022-09-28T09:17:28;1.50;;;0.95;;
37677;SDS011;23517;50.390;8.616;2022-09-28T09:26:17;2.72;;;0.90;;
37677;SDS011;23517;50.390;8.616;2022-09-28T09:29:03;0.98;;;0.80;;
37677;SDS011;23517;50.390;8.616;2022-09-28T09:37:14;1.10;;;0.82;;
37677;SDS011;23517;50.390;8.616;2022-09-28T09:48:45;2.95;;;1.02;;
37677;SDS011;23517;50.390;8.616;2022-09-28T09:51:32;1.30;;;0.77;;
37677;SDS011;23517;50.390;8.616;2022-09-28T09:54:41;13.32;;;6.18;;
37677;SDS011;23517;50.390;8.616;2022-09-28T10:00:13;3.90;;;1.95;;
37677;SDS011;23517;50.390;8.616;2022-09-28T10:02:41;4.43;;;1.58;;
37677;SDS011;23517;50.390;8.616;2022-09-28T10:10:27;1.63;;;0.60;;
37677;SDS011;23517;50.390;8.616;2022-09-28T10:12:58;2.50;;;0.68;;
37677;SDS011;23517;50.390;8.616;2022-09-28T10:15:26;0.80;;;0.60;;
37677;SDS011;23517;50.390;8.616;2022-09-28T10:17:57;1.67;;;0.52;;
37677;SDS011;23517;50.390;8.616;2022-09-28T10:20:32;2.53;;;0.73;;
37677;SDS011;23517;50.390;8.616;2022-09-28T10:23:02;1.63;;;0.85;;
37677;SDS011;23517;50.390;8.616;2022-09-28T10:25:32;3.50;;;1.60;;
37677;SDS011;23517;50.390;8.616;2022-09-28T10:28:03;2.15;;;1.10;;
37677;SDS011;23517;50.390;8.616;2022-09-28T10:30:36;4.82;;;1.20;;
37677;SDS011;23517;50.390;8.616;2022-09-28T10:33:26;1.63;;;1.00;;
37677;SDS011;23517;50.390;8.616;2022-09-28T10:35:59;2.03;;;0.80;;
37677;SDS011;23517;50.390;8.616;2022-09-28T10:38:27;1.92;;;0.70;;
37677;SDS011;23517;50.390;8.616;2022-09-28T10:40:59;2.40;;;1.17;;
37677;SDS011;23517;50.390;8.616;2022-09-28T10:43:38;6.50;;;2.15;;
37677;SDS011;23517;50.390;8.616;2022-09-28T10:46:33;1.45;;;0.90;;
37677;SDS011;23517;50.390;8.616;2022-09-28T10:49:06;1.90;;;0.68;;
37677;SDS011;23517;50.390;8.616;2022-09-28T10:54:13;3.20;;;2.28;;
37677;SDS011;23517;50.390;8.616;2022-09-28T10:56:47;0.57;;;0.57;;
37677;SDS011;23517;50.390;8.616;2022-09-28T10:59:22;2.05;;;0.80;;
37677;SDS011;23517;50.390;8.616;2022-09-28T11:01:55;2.05;;;0.60;;
37677;SDS011;23517;50.390;8.616;2022-09-28T11:05:02;0.90;;;0.52;;
37677;SDS011;23517;50.390;8.616;2022-09-28T11:07:32;2.15;;;1.35;;
37677;SDS011;23517;50.390;8.616;2022-09-28T11:10:21;0.90;;;0.80;;
37677;SDS011;23517;50.390;8.616;2022-09-28T11:12:56;3.83;;;0.80;;
37677;SDS011;23517;50.390;8.616;2022-09-28T11:15:24;0.82;;;0.60;;
37677;SDS011;23517;50.390;8.616;2022-09-28T11:17:55;1.75;;;1.20;;
37677;SDS011;23517;50.390;8.616;2022-09-28T11:22:58;1.27;;;0.50;;
37677;SDS011;23517;50.390;8.616;2022-09-28T11:25:43;4.45;;;0.80;;
37677;SDS011;23517;50.390;8.616;2022-09-28T11:28:28;0.73;;;0.50;;
37677;SDS011;23517;50.390;8.616;2022-09-28T11:30:58;1.48;;;0.93;;
37677;SDS011;23517;50.390;8.616;2022-09-28T11:33:39;0.80;;;0.50;;
37677;SDS011;23517;50.390;8.616;2022-09-28T11:38:40;0.77;;;0.60;;
37677;SDS011;23517;50.390;8.616;2022-09-28T11:47:06;0.40;;;0.40;;
37677;SDS011;23517;50.390;8.616;2022-09-28T11:55:11;0.65;;;0.47;;
37677;SDS011;23517;50.390;8.616;2022-09-28T11:57:41;0.55;;;0.35;;
37677;SDS011;23517;50.390;8.616;2022-09-28T12:00:18;1.08;;;0.40;;
37677;SDS011;23517;50.390;8.616;2022-09-28T12:02:50;2.10;;;0.60;;
37677;SDS011;23517;50.390;8.616;2022-09-28T12:06:18;0.95;;;0.50;;
37677;SDS011;23517;50.390;8.616;2022-09-28T12:08:33;0.40;;;0.40;;
37677;SDS011;23517;50.390;8.616;2022-09-28T12:11:11;1.38;;;0.50;;
37677;SDS011;23517;50.390;8.616;2022-09-28T12:13:47;1.85;;;0.60;;
37677;SDS011;23517;50.390;8.616;2022-09-28T12:19:12;1.00;;;0.52;;
37677;SDS011;23517;50.390;8.616;2022-09-28T12:22:19;4.38;;;0.50;;
37677;SDS011;23517;50.390;8.616;2022-09-28T12:24:48;0.85;;;0.65;;
37677;SDS011;23517;50.390;8.616;2022-09-28T12:27:39;1.40;;;0.65;;
37677;SDS011;23517;50.390;8.616;2022-09-28T12:30:21;1.00;;;0.90;;
37677;SDS011;23517;50.390;8.616;2022-09-28T12:33:10;0.70;;;0.70;;
37677;SDS011;23517;50.390;8.616;2022-09-28T12:35:46;1.50;;;0.85;;
37677;SDS011;23517;50.390;8.616;2022-09-28T12:45:18;1.35;;;0.80;;
37677;SDS011;23517;50.390;8.616;2022-09-28T12:48:48;3.20;;;0.93;;
37677;SDS011;23517;50.390;8.616;2022-09-28T12:52:11;2.42;;;0.80;;
37677;SDS011;23517;50.390;8.616;2022-09-28T12:55:12;1.38;;;0.60;;
37677;SDS011;23517;50.390;8.616;2022-09-28T13:00:25;1.10;;;0.90;;
37677;SDS011;23517;50.390;8.616;2022-09-28T13:03:44;0.75;;;0.40;;
37677;SDS011;23517;50.390;8.616;2022-09-28T13:09:18;1.45;;;0.52;;
37677;SDS011;23517;50.390;8.616;2022-09-28T13:14:50;1.17;;;0.50;;
37677;SDS011;23517;50.390;8.616;2022-09-28T13:20:38;1.85;;;1.20;;
37677;SDS011;23517;50.390;8.616;2022-09-28T13:23:33;1.95;;;1.20;;
37677;SDS011;23517;50.390;8.616;2022-09-28T13:26:22;1.20;;;1.02;;
37677;SDS011;23517;50.390;8.616;2022-09-28T13:28:53;1.70;;;1.33;;
37677;SDS011;23517;50.390;8.616;2022-09-28T13:31:27;3.47;;;1.80;;
37677;SDS011;23517;50.390;8.616;2022-09-28T13:34:00;3.55;;;1.77;;
37677;SDS011;23517;50.390;8.616;2022-09-28T13:38:57;4.57;;;2.55;;
37677;SDS011;23517;50.390;8.616;2022-09-28T13:41:27;2.28;;;1.10;;
37677;SDS011;23517;50.390;8.616;2022-09-28T13:52:47;6.25;;;3.17;;
37677;SDS011;23517;50.390;8.616;2022-09-28T13:55:55;4.57;;;2.42;;
37677;SDS011;23517;50.390;8.616;2022-09-28T13:59:02;4.03;;;1.80;;
37677;SDS011;23517;50.390;8.616;2022-09-28T14:01:58;3.05;;;0.90;;
37677;SDS011;23517;50.390;8.616;2022-09-28T14:07:24;3.40;;;1.25;;
37677;SDS011;23517;50.390;8.616;2022-09-28T14:16:19;2.42;;;1.50;;
37677;SDS011;23517;50.390;8.616;2022-09-28T14:18:49;2.63;;;1.30;;
37677;SDS011;23517;50.390;8.616;2022-09-28T14:24:35;1.27;;;0.93;;
37677;SDS011;23517;50.390;8.616;2022-09-28T14:33:15;2.25;;;0.80;;
37677;SDS011;23517;50.390;8.616;2022-09-28T14:35:50;1.58;;;0.80;;
37677;SDS011;23517;50.390;8.616;2022-09-28T14:38:23;5.95;;;0.80;;
37677;SDS011;23517;50.390;8.616;2022-09-28T14:41:25;1.38;;;0.90;;
37677;SDS011;23517;50.390;8.616;2022-09-28T14:44:17;2.42;;;0.77;;
37677;SDS011;23517;50.390;8.616;2022-09-28T14:46:46;1.85;;;0.90;;
37677;SDS011;23517;50.390;8.616;2022-09-28T14:55:06;5.50;;;2.28;;
37677;SDS011;23517;50.390;8.616;2022-09-28T14:57:24;12.75;;;5.25;;
37677;SDS011;23517;50.390;8.616;2022-09-28T14:59:53;4.20;;;2.40;;
37677;SDS011;23517;50.390;8.616;2022-09-28T15:02:26;1.77;;;1.00;;
37677;SDS011;23517;50.390;8.616;2022-09-28T15:05:01;1.48;;;0.80;;
37677;SDS011;23517;50.390;8.616;2022-09-28T15:07:45;2.20;;;0.75;;
37677;SDS011;23517;50.390;8.616;2022-09-28T15:10:31;1.48;;;0.70;;
37677;SDS011;23517;50.390;8.616;2022-09-28T15:13:05;4.10;;;0.77;;
37677;SDS011;23517;50.390;8.616;2022-09-28T15:15:46;1.30;;;0.90;;
37677;SDS011;23517;50.390;8.616;2022-09-28T15:21:38;1.95;;;0.98;;
37677;SDS011;23517;50.390;8.616;2022-09-28T15:27:00;3.15;;;0.98;;
37677;SDS011;23517;50.390;8.616;2022-09-28T15:29:40;2.63;;;1.20;;
37677;SDS011;23517;50.390;8.616;2022-09-28T15:32:22;1.60;;;1.00;;
37677;SDS011;23517;50.390;8.616;2022-09-28T15:34:50;1.10;;;0.63;;
37677;SDS011;23517;50.390;8.616;2022-09-28T15:37:18;2.35;;;0.73;;
37677;SDS011;23517;50.390;8.616;2022-09-28T15:39:49;1.30;;;0.73;;
37677;SDS011;23517;50.390;8.616;2022-09-28T15:42:17;1.10;;;0.88;;
37677;SDS011;23517;50.390;8.616;2022-09-28T15:44:58;1.40;;;0.77;;
37677;SDS011;23517;50.390;8.616;2022-09-28T15:47:52;1.30;;;0.80;;
37677;SDS011;23517;50.390;8.616;2022-09-28T15:50:57;1.20;;;0.80;;
37677;SDS011;23517;50.390;8.616;2022-09-28T15:53:25;1.00;;;0.75;;
37677;SDS011;23517;50.390;8.616;2022-09-28T15:55:56;1.67;;;1.10;;
37677;SDS011;23517;50.390;8.616;2022-09-28T15:58:28;1.75;;;0.98;;
37677;SDS011;23517;50.390;8.616;2022-09-28T16:15:21;1.55;;;0.63;;
37677;SDS011;23517;50.390;8.616;2022-09-28T16:17:53;1.58;;;0.88;;
37677;SDS011;23517;50.390;8.616;2022-09-28T16:20:26;1.73;;;0.90;;
37677;SDS011;23517;50.390;8.616;2022-09-28T16:23:18;2.20;;;1.10;;
37677;SDS011;23517;50.390;8.616;2022-09-28T16:25:53;2.58;;;1.40;;
37677;SDS011;23517;50.390;8.616;2022-09-28T16:33:43;1.25;;;0.75;;
37677;SDS011;23517;50.390;8.616;2022-09-28T16:36:20;1.48;;;0.60;;
37677;SDS011;23517;50.390;8.616;2022-09-28T16:38:47;2.83;;;0.82;;
37677;SDS011;23517;50.390;8.616;2022-09-28T16:41:15;0.82;;;0.60;;
37677;SDS011;23517;50.390;8.616;2022-09-28T16:43:45;1.77;;;0.70;;
37677;SDS011;23517;50.390;8.616;2022-09-28T16:46:13;1.10;;;0.60;;
37677;SDS011;23517;50.390;8.616;2022-09-28T16:48:43;2.63;;;0.90;;
37677;SDS011;23517;50.390;8.616;2022-09-28T16:51:16;3.25;;;1.80;;
37677;SDS011;23517;50.390;8.616;2022-09-28T16:53:47;4.30;;;1.00;;
37677;SDS011;23517;50.390;8.616;2022-09-28T16:56:33;4.82;;;1.55;;
37677;SDS011;23517;50.390;8.616;2022-09-28T16:59:01;2.42;;;1.50;;
37677;SDS011;23517;50.390;8.616;2022-09-28T17:01:28;2.47;;;1.40;;
37677;SDS011;23517;50.390;8.616;2022-09-28T17:03:56;2.38;;;1.40;;
37677;SDS011;23517;50.390;8.616;2022-09-28T17:06:25;1.70;;;1.50;;
37677;SDS011;23517;50.390;8.616;2022-09-28T17:08:52;6.05;;;1.58;;
37677;SDS011;23517;50.390;8.616;2022-09-28T17:11:21;4.57;;;2.53;;
37677;SDS011;23517;50.390;8.616;2022-09-28T17:13:50;5.55;;;2.45;;
37677;SDS011;23517;50.390;8.616;2022-09-28T17:16:18;4.03;;;2.00;;
37677;SDS011;23517;50.390;8.616;2022-09-28T17:19:25;2.97;;;1.83;;
37677;SDS011;23517;50.390;8.616;2022-09-28T17:21:53;3.20;;;2.10;;
37677;SDS011;23517;50.390;8.616;2022-09-28T17:24:20;5.70;;;1.38;;
37677;SDS011;23517;50.390;8.616;2022-09-28T17:26:48;2.53;;;1.27;;
37677;SDS011;23517;50.390;8.616;2022-09-28T17:29:16;3.80;;;0.93;;
37677;SDS011;23517;50.390;8.616;2022-09-28T17:31:44;9.57;;;3.35;;
37677;SDS011;23517;50.390;8.616;2022-09-28T17:34:12;3.20;;;1.88;;
37677;SDS011;23517;50.390;8.616;2022-09-28T17:36:41;2.13;;;1.05;;
37677;SDS011;23517;50.390;8.616;2022-09-28T17:39:15;5.35;;;1.30;;
37677;SDS011;23517;50.390;8.616;2022-09-28T17:41:44;4.10;;;1.20;;
37677;SDS011;23517;50.390;8.616;2022-09-28T17:44:11;6.45;;;3.80;;
37677;SDS011;23517;50.390;8.616;2022-09-28T17:46:41;2.13;;;1.50;;
37677;SDS011;23517;50.390;8.616;2022-09-28T17:49:13;3.92;;;1.00;;
37677;SDS011;23517;50.390;8.616;2022-09-28T17:51:40;1.60;;;0.93;;
37677;SDS011;23517;50.390;8.616;2022-09-28T17:54:07;2.08;;;1.33;;
37677;SDS011;23517;50.390;8.616;2022-09-28T17:56:34;3.38;;;2.03;;
37677;SDS011;23517;50.390;8.616;2022-09-28T17:59:03;9.63;;;3.33;;
37677;SDS011;23517;50.390;8.616;2022-09-28T18:01:32;24.15;;;10.43;;
37677;SDS011;23517;50.390;8.616;2022-09-28T18:04:04;41.70;;;19.05;;
37677;SDS011;23517;50.390;8.616;2022-09-28T18:06:33;36.22;;;17.92;;
37677;SDS011;23517;50.390;8.616;2022-09-28T18:09:02;14.77;;;8.93;;
37677;SDS011;23517;50.390;8.616;2022-09-28T18:11:30;6.75;;;3.75;;
37677;SDS011;23517;50.390;8.616;2022-09-28T18:13:58;6.43;;;2.80;;
37677;SDS011;23517;50.390;8.616;2022-09-28T18:16:25;5.38;;;2.15;;
37677;SDS011;23517;50.390;8.616;2022-09-28T18:18:53;5.68;;;4.45;;
37677;SDS011;23517;50.390;8.616;2022-09-28T18:21:20;9.10;;;3.33;;
37677;SDS011;23517;50.390;8.616;2022-09-28T18:23:47;4.53;;;2.58;;
37677;SDS011;23517;50.390;8.616;2022-09-28T18:26:13;5.80;;;2.40;;
37677;SDS011;23517;50.390;8.616;2022-09-28T18:31:16;3.63;;;1.83;;